सभी
Yarram Airport (Yarram, Victoria) YYRM मौसम
|
Yarram, Victoria (YYRM)
स्वच्छ आकाश
शांत हवाएं |
|
11 °C |
There is no TAF data available at YYRM. Showing TAF data for YLTV (29 mi NW).
TGN Terminal Area Forecast (no data for YYRM)
| Here is the undecoded forecast: 2026/05/03 13:06 YLTV 031306Z 0314/0402 VRB03KT CAVOK PROB30 0315/0323 0300 FG BKN001 RMK T 13 12 09 13 Q 1013 1011 1012 1012 |
Recent YYRM METAR history
| Date | Time (AEST) | Flight Rules | Wind Dir. | Speed | Type | Height AGL (ft) | Visibility | Temp (°C) | Temp (°F) | Dew Point (°C) | Dew Point (°F) | Rel. Humid. | Pressure | Density Altitude | Remarks |
|---|---|---|---|---|---|---|---|---|---|---|---|---|---|---|---|
| 04-मई | 04:00 | n/a | 30° | 3 kt | Missing | 11° | 51° | 11° | 51° | 100% | 1011 mb | -353 ft | |||
| 04-मई | 03:00 | n/a | 290° | 4 kt | Missing | 12° | 53° | 9° | 48° | 82% | 1011 mb | -233 ft | |||
| 04-मई | 02:00 | n/a | 260° | 4 kt | Missing | 13° | 55° | 12° | 53° | 94% | 1012 mb | -142 ft | |||
| 04-मई | 01:00 | n/a | 280° | 7 kt | Missing | 14° | 57° | 12° | 53° | 88% | 1012 mb | -22 ft | |||
| 04-मई | 00:00 | n/a | 320° | 3 kt | Missing | 13° | 55° | 13° | 55° | 100% | 1013 mb | -172 ft | |||
| 03-मई | 23:00 | n/a | 350° | 4 kt | Missing | 13° | 55° | 13° | 55° | 100% | 1012 mb | -142 ft | |||
| 03-मई | 22:00 | n/a | 320° | 4 kt | Missing | 13° | 55° | 13° | 55° | 100% | 1012 mb | -142 ft | |||
| 03-मई | 21:00 | n/a | 220° | 3 kt | Missing | 14° | 57° | 14° | 57° | 100% | 1012 mb | -22 ft | |||
| 03-मई | 20:00 | n/a | 330° | 11 kt | Missing | 15° | 59° | 14° | 57° | 94% | 1012 mb | 98 ft | |||
| 03-मई | 19:00 | n/a | 240° | 10 kt | Missing | 17° | 62° | 17° | 62° | 100% | 1011 mb | 367 ft | |||
| 03-मई | 18:00 | n/a | 30° | 5 kt | Missing | 17° | 62° | 17° | 62° | 100% | 1010 mb | 397 ft | Thunderstorms | ||
| 03-मई | 17:00 | n/a | 40° | 5 kt | Missing | 18° | 64° | 18° | 64° | 100% | 1010 mb | 517 ft | |||
| 03-मई | 16:00 | n/a | 40° | 6 kt | Missing | 18° | 64° | 18° | 64° | 100% | 1010 mb | 517 ft | |||
| 03-मई | 15:00 | n/a | 60° | 5 kt | Missing | 19° | 66° | 19° | 66° | 100% | 1011 mb | 607 ft | |||
| 03-मई | 14:00 | n/a | 350° | 9 kt | Missing | 19° | 66° | 18° | 64° | 94% | 1011 mb | 607 ft | |||
| 03-मई | 13:00 | n/a | 320° | 7 kt | Missing | 19° | 66° | 16° | 60° | 83% | 1011 mb | 607 ft | |||
| 03-मई | 12:00 | n/a | 50° | 5 kt | Missing | 20° | 68° | 14° | 57° | 68% | 1011 mb | 727 ft | |||
| 03-मई | 11:00 | n/a | 30° | 6 kt | Missing | 20° | 68° | 14° | 57° | 68% | 1012 mb | 698 ft | |||
| 03-मई | 10:00 | n/a | 10° | 9 kt | Missing | 21° | 69° | 14° | 57° | 64% | 1012 mb | 818 ft | |||
| 03-मई | 09:00 | n/a | 70° | 6 kt | Missing | 18° | 64° | 13° | 55° | 73% | 1013 mb | 428 ft | |||
| 03-मई | 08:00 | n/a | 80° | 4 kt | Missing | 18° | 64° | 12° | 53° | 68% | 1013 mb | 428 ft | |||
| 03-मई | 07:00 | n/a | 30° | 7 kt | Missing | 18° | 64° | 12° | 53° | 68% | 1013 mb | 428 ft | |||
| 03-मई | 06:00 | n/a | 30° | 7 kt | Missing | 18° | 64° | 12° | 53° | 68% | 1013 mb | 428 ft | |||
| 03-मई | 05:00 | n/a | 20° | 5 kt | Missing | 17° | 62° | 11° | 51° | 68% | 1013 mb | 308 ft |
लॉगिन
| Your browser is unsupported. अपना ब्राऊजर अपग्रेड करें |
